Edina, Minnesota
Current Conditions -  °F | °C
As of 9:53 AM on Thursday 23 Oct 2014 (Local Time) from KMSP Reporting Station
Broken Clouds Broken Clouds  
Wind Chill: 54°   Ceiling: 1000
Heat Index: 54°   Visibility: 8mi
Dew Point: 51°   Wind: 5mph
Humidity: 90%   Direction: 180°S
Pressure: 30"   Gusts: NA
Location:  44.91°N, 93.35°W
Report Text: KMSP 231453Z 18004KT 8SM BKN010 12/11 A3000 RMK AO2 SLP161 T01220106 50003
Loading
Personal Weather Stations






























Interactive Weather Map
Tropical Storm Tracking
New forecast layout! Learn more

10-Day Weather Forecast

Advertisements
Track Severe Weather on mobile